METAR Data
IDs: Format: Raw Decoded Include TAF

Data at: 2116 UTC 01 Oct 2022

KRZL 012055Z AUTO 01008G14KT 10SM CLR 21/00 A3016 RMK AO2